|
公历农历对照

机场天气预报 (TAF)

机场天气预报 (TAF) 载述关于某个机场在预测期内预料会出现的气象要素。

香港天文台在 17 年 05 月 23 日 01 时 00 分最新发出的香港国际机场天气预报

TAF VHHH 221700Z 2218/2324 10010KT 7000 FEW010 SCT020 TX29/2306Z TN25/2222Z TN25/2322Z TEMPO 2218/2222 4500 SHRA BECMG 2303/2305 16010KT TEMPO 2312/2318 VRB05KT TEMPO 2318/2324 22010KT 3500 SHRA FEW010CB SCT020=

(下次更新时间:17年05月23日07时00分)

机场天气预报电码经解码后:-

香港天文台发出 2017 年 05 月 22 日 18 协调世界时 至 2017 年 05 月 23 日 24 协调世界时 的机场天气预报:
 

时间(协调世界时) 能见度 天气状况 云层 云层高度
2017 年 05 月 22 日 18 时 至 2017 年 05 月 23 日 03 时 东风 (100 o) 10 海里/小时 7 公里 无重要天气状况
1-2
3-4
1000 呎
2000 呎
2017 年 05 月 22 日 18 时 至 22 时 期间间中 东风 (100 o) 10 海里/小时 4500 米 骤雨
1-2
3-4
1000 呎
2000 呎
2017 年 05 月 23 日 03 时 至 05 时 期间逐渐转变为 东南偏南风 (160 o) 10 海里/小时 7 公里 无重要天气状况
1-2
3-4
1000 呎
2000 呎
2017 年 05 月 23 日 12 时 至 18 时 期间间中 5 海里/小时 (风向不定) 7 公里 无重要天气状况
1-2
3-4
1000 呎
2000 呎
2017 年 05 月 23 日 18 时 至 24 时 期间间中 西南风 (220 o) 10 海里/小时 3500 米 骤雨
1-2 积雨云
3-4
1000 呎
2000 呎

时间(协调世界时) 气温
2017 年 05 月 23 日 06 时
最高29 oC
2017 年 05 月 22 日 22 时
最低25 oC
2017 年 05 月 23 日 22 时
最低25 oC

份: 云层是以估计天空被云遮蔽之总面积来评定。把天空分为八份,1 份即是八份之一的天空被云遮蔽,2 份即是八份之二的天空被云遮蔽,如此类推。
  0 份 = 天朗气清,1-2 份 = 稀薄云层,3-4 份 = 零散云层,5-7 份 = 疏松云层,8 份 = 天色阴暗。
若想进一步了解机场天气预报(TAF)的编码,请参看剖析TAF电码的意义
若想进一步了解云,请参看香港常见的云
 
香港国际机场航空天气报告资料 本港地区航空天气预报
 
版权及声明